createdAt,value
2023-04-10T00:01:14.476Z,9.50
2023-04-10T00:03:42.897Z,9.50
2023-04-10T00:06:10.960Z,9.40
2023-04-10T00:08:38.930Z,9.40
2023-04-10T00:11:06.941Z,9.40
2023-04-10T00:13:36.274Z,9.40
2023-04-10T00:16:04.437Z,9.40
2023-04-10T00:18:32.412Z,9.30
2023-04-10T00:21:00.351Z,9.30
2023-04-10T00:23:28.294Z,9.20
2023-04-10T00:25:56.241Z,10.30
2023-04-10T00:28:24.196Z,9.20
2023-04-10T00:30:53.540Z,9.20
2023-04-10T00:33:21.526Z,9.20
2023-04-10T00:35:49.522Z,9.10
2023-04-10T00:38:17.515Z,9.10
2023-04-10T00:40:45.504Z,9.10
2023-04-10T00:43:13.707Z,9.10
2023-04-10T00:45:43.324Z,9.00
2023-04-10T00:48:16.048Z,9.00
2023-04-10T00:50:44.222Z,9.00
2023-04-10T00:53:12.297Z,9.00
2023-04-10T00:55:42.109Z,9.00
2023-04-10T00:58:14.723Z,9.00
2023-04-10T01:00:42.828Z,9.00
2023-04-10T01:03:11.747Z,8.90
2023-04-10T01:05:43.752Z,9.00
2023-04-10T01:08:13.975Z,9.00
2023-04-10T01:10:46.049Z,8.90
2023-04-10T01:13:17.466Z,9.00
2023-04-10T01:15:48.905Z,9.00
2023-04-10T01:18:19.124Z,8.90
2023-04-10T01:20:48.530Z,8.90
2023-04-10T01:23:41.037Z,8.90
2023-04-10T01:26:11.107Z,8.90
2023-04-10T01:28:49.154Z,8.90
2023-04-10T01:31:20.863Z,8.90
2023-04-10T01:33:50.843Z,8.80
2023-04-10T01:36:21.447Z,8.90
2023-04-10T01:38:50.404Z,8.80
2023-04-10T01:41:19.672Z,8.80
2023-04-10T01:43:50.477Z,8.80
2023-04-10T01:46:20.030Z,8.80
2023-04-10T01:48:48.432Z,8.80
2023-04-10T01:51:16.751Z,8.80
2023-04-10T01:53:44.950Z,8.80
2023-04-10T01:56:13.705Z,8.70
2023-04-10T01:58:41.669Z,8.70
2023-04-10T02:01:22.549Z,8.70
2023-04-10T02:03:55.356Z,8.70
2023-04-10T02:06:28.035Z,8.70
2023-04-10T02:09:09.533Z,8.60
2023-04-10T02:11:39.607Z,8.60
2023-04-10T02:14:11.814Z,8.60
2023-04-10T02:16:42.037Z,8.60
2023-04-10T02:19:13.818Z,8.60
2023-04-10T02:21:43.823Z,8.50
2023-04-10T02:24:11.804Z,8.50
2023-04-10T02:26:46.188Z,8.40
2023-04-10T02:29:17.047Z,8.40
2023-04-10T02:31:49.953Z,8.40
2023-04-10T02:34:17.927Z,8.40
2023-04-10T02:36:45.938Z,8.40
2023-04-10T02:39:13.923Z,8.40
2023-04-10T02:41:46.421Z,8.30
2023-04-10T02:44:14.446Z,8.30
2023-04-10T02:46:42.886Z,8.30
2023-04-10T02:49:12.258Z,8.30
2023-04-10T02:51:40.491Z,8.20
2023-04-10T02:54:11.433Z,8.20
2023-04-10T02:56:39.474Z,8.30
2023-04-10T02:59:09.169Z,8.20
2023-04-10T03:01:42.171Z,8.20
2023-04-10T03:04:13.608Z,8.20
2023-04-10T03:06:43.043Z,8.20
2023-04-10T03:09:12.252Z,8.10
2023-04-10T03:11:40.388Z,8.10
2023-04-10T03:14:11.113Z,8.10
2023-04-10T03:16:39.288Z,8.10
2023-04-10T03:19:07.335Z,8.10
2023-04-10T03:21:35.317Z,8.10
2023-04-10T03:24:04.827Z,8.00
2023-04-10T03:26:32.894Z,8.00
2023-04-10T03:29:01.174Z,8.00
2023-04-10T03:31:29.171Z,8.00
2023-04-10T03:33:57.292Z,8.00
2023-04-10T03:36:25.567Z,7.90
2023-04-10T03:38:53.843Z,7.90
2023-04-10T03:41:25.421Z,7.90
2023-04-10T03:43:56.696Z,7.90
2023-04-10T03:46:24.841Z,7.90
2023-04-10T03:48:54.120Z,7.80
2023-04-10T03:51:23.479Z,7.80
2023-04-10T03:53:51.681Z,7.80
2023-04-10T03:56:19.860Z,7.80
2023-04-10T03:58:49.202Z,7.80
2023-04-10T04:01:17.158Z,7.80
2023-04-10T04:03:45.589Z,7.70
2023-04-10T04:06:16.475Z,7.70
2023-04-10T04:08:44.486Z,7.70
2023-04-10T04:11:12.517Z,7.60
2023-04-10T04:13:42.386Z,7.60
2023-04-10T04:16:12.333Z,8.00
2023-04-10T04:18:40.409Z,7.60
2023-04-10T04:21:10.856Z,7.50
2023-04-10T04:23:38.864Z,7.50
2023-04-10T04:26:07.128Z,7.40
2023-04-10T04:28:35.606Z,7.40
2023-04-10T04:31:03.639Z,7.50
2023-04-10T04:33:32.962Z,7.50
2023-04-10T04:36:01.012Z,7.50
2023-04-10T04:38:32.216Z,7.40
2023-04-10T04:41:00.192Z,7.40
2023-04-10T04:43:28.243Z,7.40
2023-04-10T04:46:00.786Z,7.30
2023-04-10T04:48:28.740Z,7.40
2023-04-10T04:50:58.080Z,7.30
2023-04-10T04:53:26.105Z,7.30
2023-04-10T04:55:56.588Z,7.30
2023-04-10T04:58:24.681Z,7.30
2023-04-10T05:00:52.906Z,7.30
2023-04-10T05:03:21.214Z,7.20
2023-04-10T05:05:49.313Z,7.20
2023-04-10T05:08:18.804Z,7.20
2023-04-10T05:10:46.821Z,7.20
2023-04-10T05:13:15.619Z,7.20
2023-04-10T05:15:45.658Z,7.30
2023-04-10T05:18:14.208Z,7.30
2023-04-10T05:20:42.249Z,7.20
2023-04-10T05:23:11.054Z,7.20
2023-04-10T05:25:40.369Z,7.20
2023-04-10T05:28:08.345Z,7.20
2023-04-10T05:30:36.279Z,7.30
2023-04-10T05:33:04.245Z,7.30
2023-04-10T05:35:32.511Z,7.20
2023-04-10T05:38:00.736Z,7.30
2023-04-10T05:40:29.652Z,7.40
2023-04-10T05:42:58.968Z,7.30
2023-04-10T05:45:30.166Z,7.40
2023-04-10T05:48:00.927Z,7.50
2023-04-10T05:50:30.495Z,7.50
2023-04-10T05:52:58.637Z,7.50
2023-04-10T05:55:26.612Z,7.70
2023-04-10T05:57:56.893Z,7.70
2023-04-10T06:00:26.574Z,7.70
2023-04-10T06:02:54.608Z,7.80
2023-04-10T06:05:22.763Z,7.80
2023-04-10T06:07:51.651Z,7.90
2023-04-10T06:10:19.686Z,7.90
2023-04-10T06:12:47.665Z,7.90
2023-04-10T06:15:15.786Z,7.90
2023-04-10T06:17:45.375Z,8.00
2023-04-10T06:20:13.768Z,8.00
2023-04-10T06:22:41.748Z,8.10
2023-04-10T06:25:12.016Z,8.10
2023-04-10T06:27:42.695Z,8.20
2023-04-10T06:30:10.961Z,8.20
2023-04-10T06:32:38.928Z,8.30
2023-04-10T06:35:08.678Z,8.30
2023-04-10T06:37:38.643Z,8.40
2023-04-10T06:40:07.338Z,8.50
2023-04-10T06:42:35.299Z,8.50
2023-04-10T06:45:03.844Z,9.70
2023-04-10T06:47:32.132Z,8.70
2023-04-10T06:50:03.141Z,8.80
2023-04-10T06:52:33.156Z,8.80
2023-04-10T06:55:01.124Z,8.90
2023-04-10T06:57:29.709Z,9.00
2023-04-10T06:59:59.192Z,9.10
2023-04-10T07:02:27.292Z,9.20
2023-04-10T07:04:56.819Z,9.30
2023-04-10T07:07:25.374Z,9.30
2023-04-10T07:09:54.672Z,9.40
2023-04-10T07:12:22.857Z,9.50
2023-04-10T07:14:50.959Z,9.60
2023-04-10T07:17:18.976Z,9.70
2023-04-10T07:19:47.065Z,9.80
2023-04-10T07:22:15.783Z,9.90
2023-04-10T07:24:44.197Z,10.10
2023-04-10T07:27:14.650Z,10.10
2023-04-10T07:29:42.640Z,10.30
2023-04-10T07:32:10.873Z,10.40
2023-04-10T07:34:38.969Z,10.50
2023-04-10T07:37:07.171Z,10.60
2023-04-10T07:39:35.162Z,10.70
2023-04-10T07:42:03.182Z,10.80
2023-04-10T07:44:32.599Z,10.90
2023-04-10T07:47:00.674Z,11.00
2023-04-10T07:49:28.623Z,11.10
2023-04-10T07:51:56.565Z,11.30
2023-04-10T07:54:24.677Z,11.40
2023-04-10T07:56:53.236Z,11.50
2023-04-10T07:59:21.231Z,11.80
2023-04-10T08:01:50.633Z,11.80
2023-04-10T08:04:18.981Z,11.90
2023-04-10T08:06:47.087Z,12.00
2023-04-10T08:09:15.122Z,12.20
2023-04-10T08:11:43.095Z,12.30
2023-04-10T08:14:11.134Z,12.40
2023-04-10T08:16:39.535Z,12.60
2023-04-10T08:19:09.694Z,12.70
2023-04-10T08:21:37.638Z,12.80
2023-04-10T08:24:08.271Z,12.90
2023-04-10T08:26:36.293Z,12.90
2023-04-10T08:29:04.254Z,13.00
2023-04-10T08:31:34.186Z,13.10
2023-04-10T08:34:03.660Z,13.20
2023-04-10T08:36:33.226Z,13.30
2023-04-10T08:39:01.210Z,13.40
2023-04-10T08:41:29.306Z,13.50
2023-04-10T08:43:58.134Z,13.60
2023-04-10T08:46:35.447Z,13.60
2023-04-10T08:49:04.538Z,13.70
2023-04-10T08:51:37.160Z,13.70
2023-04-10T08:54:07.231Z,13.80
2023-04-10T08:56:36.022Z,13.90
2023-04-10T08:59:04.342Z,13.90
2023-04-10T09:01:32.384Z,14.00
2023-04-10T09:04:02.492Z,14.10
2023-04-10T09:06:31.501Z,14.10
2023-04-10T09:12:07.198Z,14.20
2023-04-10T09:14:35.923Z,14.30
2023-04-10T09:17:17.028Z,14.40
2023-04-10T09:19:46.227Z,14.50
2023-04-10T09:22:15.691Z,14.60
2023-04-10T09:24:45.940Z,14.70
2023-04-10T09:27:28.621Z,14.70
2023-04-10T09:29:56.564Z,14.80
2023-04-10T09:32:38.019Z,15.00
2023-04-10T09:35:07.285Z,15.00
2023-04-10T09:37:38.741Z,15.00
2023-04-10T09:40:20.299Z,15.20
2023-04-10T09:42:48.276Z,15.40
2023-04-10T09:45:20.186Z,15.50
2023-04-10T09:48:02.174Z,15.50
2023-04-10T09:50:38.725Z,15.60
2023-04-10T09:53:07.773Z,15.70
2023-04-10T09:55:37.870Z,15.80
2023-04-10T09:58:06.425Z,15.80
2023-04-10T10:00:37.029Z,15.80
2023-04-10T10:03:08.662Z,15.90
2023-04-10T10:05:37.384Z,16.10
2023-04-10T10:08:05.677Z,16.20
2023-04-10T10:10:33.729Z,16.10
2023-04-10T10:13:06.629Z,16.10
2023-04-10T10:15:38.190Z,16.20
2023-04-10T10:18:11.156Z,16.00
2023-04-10T10:20:40.035Z,16.00
2023-04-10T10:23:08.129Z,16.00
2023-04-10T10:25:38.270Z,16.20
2023-04-10T10:28:07.756Z,16.20
2023-04-10T10:30:35.903Z,16.20
2023-04-10T10:33:06.729Z,16.10
2023-04-10T10:35:35.434Z,16.10
2023-04-10T10:38:04.317Z,16.10
2023-04-10T10:40:33.564Z,16.20
2023-04-10T10:43:08.304Z,16.30
2023-04-10T10:45:42.295Z,16.40
2023-04-10T10:48:11.261Z,16.30
2023-04-10T10:50:52.474Z,16.40
2023-04-10T10:53:36.311Z,16.30
2023-04-10T10:56:23.091Z,16.30
2023-04-10T10:58:52.040Z,16.50
2023-04-10T11:01:22.256Z,16.20
2023-04-10T11:03:50.809Z,16.60
2023-04-10T11:06:22.406Z,16.50
2023-04-10T11:08:52.905Z,16.60
2023-04-10T11:11:23.333Z,16.60
2023-04-10T11:14:10.114Z,16.50
2023-04-10T11:16:46.595Z,16.60
2023-04-10T11:19:16.448Z,16.50
2023-04-10T11:21:59.883Z,16.50
2023-04-10T11:24:27.898Z,16.60
2023-04-10T11:26:56.881Z,16.60
2023-04-10T11:29:34.510Z,16.50
2023-04-10T11:32:04.730Z,16.60
2023-04-10T11:34:33.198Z,16.80
2023-04-10T11:37:02.996Z,16.80
2023-04-10T11:39:31.992Z,16.80
2023-04-10T11:41:59.976Z,17.00
2023-04-10T11:44:32.459Z,17.00
2023-04-10T11:47:00.472Z,17.10
2023-04-10T11:49:31.224Z,17.30
2023-04-10T11:51:59.481Z,17.30
2023-04-10T11:54:28.105Z,17.50
2023-04-10T11:56:58.816Z,17.70
2023-04-10T11:59:27.043Z,17.60
2023-04-10T12:01:55.962Z,17.80
2023-04-10T12:04:24.932Z,17.70
2023-04-10T12:06:56.958Z,17.70
2023-04-10T12:09:25.020Z,17.50
2023-04-10T12:11:53.413Z,17.80
2023-04-10T12:14:22.052Z,18.20
2023-04-10T12:16:50.263Z,18.20
2023-04-10T12:19:18.652Z,18.00
2023-04-10T12:21:47.090Z,18.00
2023-04-10T12:24:38.381Z,18.20
2023-04-10T12:27:06.517Z,18.10
2023-04-10T12:29:34.578Z,19.30
2023-04-10T12:32:08.424Z,18.00
2023-04-10T12:34:37.314Z,18.00
2023-04-10T12:37:06.223Z,18.20
2023-04-10T12:39:35.542Z,18.50
2023-04-10T12:42:13.293Z,18.60
2023-04-10T12:44:57.206Z,18.40
2023-04-10T12:47:25.472Z,18.50
2023-04-10T12:50:10.129Z,18.40
2023-04-10T12:52:38.619Z,18.50
2023-04-10T12:55:14.935Z,18.50
2023-04-10T12:57:43.611Z,18.50
2023-04-10T13:00:12.911Z,18.40
2023-04-10T13:02:42.036Z,18.30
2023-04-10T13:05:11.142Z,18.50
2023-04-10T13:07:42.676Z,18.70
2023-04-10T13:10:10.896Z,18.70
2023-04-10T13:12:41.920Z,18.70
2023-04-10T13:15:10.821Z,18.70
2023-04-10T13:17:38.918Z,18.70
2023-04-10T13:20:07.624Z,18.90
2023-04-10T13:22:35.942Z,19.10
2023-04-10T13:25:05.351Z,18.70
2023-04-10T13:27:33.278Z,18.50
2023-04-10T13:30:02.635Z,18.30
2023-04-10T13:32:31.145Z,18.10
2023-04-10T13:34:59.284Z,18.00
2023-04-10T13:37:36.698Z,18.00
2023-04-10T13:40:05.372Z,18.10
2023-04-10T13:42:33.418Z,18.20
2023-04-10T13:45:01.697Z,18.20
2023-04-10T13:47:29.753Z,18.20
2023-04-10T13:49:57.824Z,18.30
2023-04-10T13:52:25.867Z,18.50
2023-04-10T13:54:55.192Z,18.60
2023-04-10T13:57:25.747Z,18.70
2023-04-10T13:59:56.697Z,18.70
2023-04-10T14:02:24.728Z,19.10
2023-04-10T14:04:52.832Z,19.00
2023-04-10T14:07:20.921Z,19.00
2023-04-10T14:09:48.952Z,18.70
2023-04-10T14:12:19.265Z,18.40
2023-04-10T14:14:49.851Z,18.20
2023-04-10T14:17:19.088Z,18.40
2023-04-10T14:19:49.029Z,18.40
2023-04-10T14:22:17.069Z,18.30
2023-04-10T14:24:45.272Z,18.20
2023-04-10T14:27:13.586Z,18.20
2023-04-10T14:29:53.920Z,18.00
2023-04-10T14:32:22.910Z,17.90
2023-04-10T14:34:50.980Z,17.90
2023-04-10T14:37:19.714Z,17.90
2023-04-10T14:39:47.863Z,17.90
2023-04-10T14:42:17.936Z,17.80
2023-04-10T14:44:47.378Z,17.70
2023-04-10T14:47:15.523Z,17.80
2023-04-10T14:49:43.567Z,17.60
2023-04-10T14:52:11.821Z,17.50
2023-04-10T14:54:39.797Z,17.40
2023-04-10T14:57:07.978Z,17.40
2023-04-10T14:59:41.896Z,17.40
2023-04-10T15:02:11.401Z,17.40
2023-04-10T15:04:39.568Z,17.30
2023-04-10T15:07:07.684Z,17.30
2023-04-10T15:09:35.797Z,17.30
2023-04-10T15:12:03.841Z,17.30
2023-04-10T15:14:33.712Z,17.30
2023-04-10T15:17:01.823Z,17.30
2023-04-10T15:19:31.216Z,17.20
2023-04-10T15:21:59.276Z,17.20
2023-04-10T15:24:29.116Z,17.20
2023-04-10T15:27:02.076Z,17.20
2023-04-10T15:29:31.942Z,17.10
2023-04-10T15:32:00.633Z,17.10
2023-04-10T15:34:33.045Z,17.10
2023-04-10T15:37:01.132Z,17.10
2023-04-10T15:39:31.710Z,17.10
2023-04-10T15:42:00.258Z,17.00
2023-04-10T15:44:28.282Z,17.00
2023-04-10T15:46:56.370Z,17.00
2023-04-10T15:49:36.120Z,17.00
2023-04-10T15:52:09.258Z,17.00
2023-04-10T15:54:37.362Z,17.00
2023-04-10T15:57:05.535Z,16.90
2023-04-10T15:59:36.476Z,16.90
2023-04-10T16:02:06.683Z,16.90
2023-04-10T16:04:35.225Z,16.90
2023-04-10T16:07:03.537Z,16.90
2023-04-10T16:09:32.924Z,16.90
2023-04-10T16:12:01.945Z,16.80
2023-04-10T16:14:29.967Z,16.80
2023-04-10T16:16:58.448Z,16.80
2023-04-10T16:19:26.520Z,16.80
2023-04-10T16:21:54.710Z,16.70
2023-04-10T16:24:22.763Z,16.70
2023-04-10T16:26:54.322Z,16.70
2023-04-10T16:29:24.786Z,16.70
2023-04-10T16:31:52.886Z,16.60
2023-04-10T16:34:21.265Z,16.60
2023-04-10T16:36:49.275Z,16.60
2023-04-10T16:39:17.290Z,16.60
2023-04-10T16:41:45.338Z,16.50
2023-04-10T16:44:15.080Z,16.50
2023-04-10T16:46:43.167Z,16.50
2023-04-10T16:49:11.386Z,16.50
2023-04-10T16:51:39.499Z,16.40
2023-04-10T16:54:07.921Z,16.40
2023-04-10T16:56:35.920Z,16.40
2023-04-10T16:59:03.977Z,16.40
2023-04-10T17:01:37.542Z,16.40
2023-04-10T17:04:05.631Z,16.30
2023-04-10T17:06:35.976Z,16.30
2023-04-10T17:09:04.076Z,16.20
2023-04-10T17:11:32.265Z,16.10
2023-04-10T17:14:00.392Z,16.10
2023-04-10T17:16:28.618Z,16.10
2023-04-10T17:18:58.143Z,16.10
2023-04-10T17:21:27.153Z,16.10
2023-04-10T17:23:55.198Z,16.10
2023-04-10T17:26:23.386Z,16.00
2023-04-10T17:28:51.548Z,15.90
2023-04-10T17:31:21.278Z,15.90
2023-04-10T17:33:49.356Z,15.90
2023-04-10T17:36:18.892Z,15.80
2023-04-10T17:38:47.291Z,15.80
2023-04-10T17:41:16.224Z,15.80
2023-04-10T17:43:44.508Z,15.80
2023-04-10T17:46:14.172Z,15.80
2023-04-10T17:48:42.223Z,15.80
2023-04-10T17:51:10.727Z,15.80
2023-04-10T17:53:40.366Z,15.70
2023-04-10T17:56:08.707Z,15.80
2023-04-10T17:58:36.725Z,15.80
2023-04-10T18:01:05.079Z,15.80
2023-04-10T18:03:33.526Z,15.70
2023-04-10T18:06:01.675Z,15.70
2023-04-10T18:08:29.693Z,15.70
2023-04-10T18:10:59.136Z,15.80
2023-04-10T18:13:27.151Z,15.80
2023-04-10T18:15:55.144Z,15.70
2023-04-10T18:18:23.157Z,15.70
2023-04-10T18:20:51.310Z,15.70
2023-04-10T18:23:19.350Z,15.30
2023-04-10T18:25:52.760Z,15.70
2023-04-10T18:28:22.422Z,15.70
2023-04-10T18:30:53.805Z,15.70
2023-04-10T18:33:24.185Z,15.70
2023-04-10T18:35:52.712Z,15.60
2023-04-10T18:38:20.925Z,15.60
2023-04-10T18:40:51.125Z,15.50
2023-04-10T18:43:19.360Z,15.50
2023-04-10T18:45:48.768Z,15.50
2023-04-10T18:48:16.873Z,15.50
2023-04-10T18:50:44.920Z,15.40
2023-04-10T18:53:13.436Z,15.40
2023-04-10T18:55:41.454Z,15.40
2023-04-10T18:58:09.685Z,15.30
2023-04-10T19:00:37.711Z,15.20
2023-04-10T19:03:07.305Z,15.00
2023-04-10T19:05:35.476Z,15.00
2023-04-10T19:08:04.929Z,14.90
2023-04-10T19:10:33.254Z,14.70
2023-04-10T19:13:01.317Z,14.60
2023-04-10T19:15:29.584Z,14.50
2023-04-10T19:17:57.928Z,14.40
2023-04-10T19:20:52.217Z,14.30
2023-04-10T19:23:15.689Z,13.90
2023-04-10T19:25:44.307Z,13.90
2023-04-10T19:28:12.325Z,13.70
2023-04-10T19:30:40.709Z,13.50
2023-04-10T19:33:08.727Z,13.00
2023-04-10T19:35:38.204Z,12.80
2023-04-10T19:38:06.245Z,12.60
2023-04-10T19:40:34.333Z,12.50
2023-04-10T19:43:02.629Z,12.40
2023-04-10T19:45:32.426Z,12.40
2023-04-10T19:48:01.167Z,12.40
2023-04-10T19:50:30.058Z,12.30
2023-04-10T19:52:59.759Z,12.20
2023-04-10T19:55:28.182Z,12.20
2023-04-10T19:57:56.215Z,12.10
2023-04-10T20:00:24.295Z,12.10
2023-04-10T20:02:52.546Z,12.00
2023-04-10T20:05:20.917Z,11.90
2023-04-10T20:07:49.152Z,11.80
2023-04-10T20:10:18.661Z,11.70
2023-04-10T20:12:46.716Z,11.60
2023-04-10T20:15:14.860Z,11.40
2023-04-10T20:17:42.900Z,11.40
2023-04-10T20:20:12.736Z,11.40
2023-04-10T20:22:40.990Z,11.20
2023-04-10T20:25:09.388Z,11.20
2023-04-10T20:27:38.767Z,11.10
2023-04-10T20:30:07.735Z,11.10
2023-04-10T20:32:37.000Z,11.00
2023-04-10T20:35:05.416Z,10.90
2023-04-10T20:37:33.626Z,10.90
2023-04-10T20:40:02.109Z,10.80
2023-04-10T20:42:30.210Z,10.80
2023-04-10T20:44:59.549Z,10.80
2023-04-10T20:47:27.824Z,11.00
2023-04-10T20:49:56.082Z,10.80
2023-04-10T20:52:25.914Z,10.80
2023-04-10T20:54:54.039Z,10.80
2023-04-10T20:57:23.745Z,10.80
2023-04-10T20:59:52.048Z,10.80
2023-04-10T21:02:21.809Z,10.80
2023-04-10T21:04:50.861Z,10.80
2023-04-10T21:07:18.994Z,10.80
2023-04-10T21:09:46.980Z,10.80
2023-04-10T21:12:15.008Z,10.70
2023-04-10T21:14:43.051Z,10.70
2023-04-10T21:17:11.126Z,10.70
2023-04-10T21:19:40.488Z,10.70
2023-04-10T21:22:10.249Z,10.70
2023-04-10T21:24:38.294Z,10.70
2023-04-10T21:27:06.418Z,10.70
2023-04-10T21:29:34.628Z,10.70
2023-04-10T21:32:05.038Z,10.70
2023-04-10T21:34:33.039Z,10.70
2023-04-10T21:37:02.542Z,10.70
2023-04-10T21:39:33.133Z,10.70
2023-04-10T21:42:01.233Z,10.70
2023-04-10T21:44:29.356Z,10.70
2023-04-10T21:46:57.406Z,10.70
2023-04-10T21:49:25.460Z,10.70
2023-04-10T21:51:53.642Z,10.90
2023-04-10T21:54:23.422Z,10.60
2023-04-10T21:56:51.467Z,10.60
2023-04-10T21:59:19.686Z,10.70
2023-04-10T22:01:48.046Z,10.60
2023-04-10T22:04:17.532Z,10.60
2023-04-10T22:06:45.681Z,10.60
2023-04-10T22:09:13.688Z,10.50
2023-04-10T22:11:43.138Z,10.60
2023-04-10T22:14:17.006Z,10.60
2023-04-10T22:16:46.256Z,10.50
2023-04-10T22:19:14.392Z,10.50
2023-04-10T22:21:42.468Z,10.50
2023-04-10T22:24:10.636Z,10.50
2023-04-10T22:26:38.681Z,10.40
2023-04-10T22:29:08.236Z,10.40
2023-04-10T22:31:36.298Z,10.40
2023-04-10T22:34:04.413Z,10.40
2023-04-10T22:36:32.933Z,10.40
2023-04-10T22:39:01.049Z,10.40
2023-04-10T22:41:29.208Z,10.40
2023-04-10T22:43:57.460Z,10.40
2023-04-10T22:46:26.972Z,10.40
2023-04-10T22:48:55.660Z,10.40
2023-04-10T22:51:23.966Z,10.40
2023-04-10T22:53:52.041Z,10.40
2023-04-10T22:56:23.234Z,10.40
2023-04-10T22:58:51.863Z,10.30
2023-04-10T23:01:20.257Z,10.30
2023-04-10T23:03:52.837Z,10.30
2023-04-10T23:06:21.169Z,10.30
2023-04-10T23:08:49.266Z,10.30
2023-04-10T23:11:17.291Z,10.30
2023-04-10T23:13:45.506Z,10.30
2023-04-10T23:16:13.758Z,10.30
2023-04-10T23:18:42.301Z,10.30
2023-04-10T23:21:12.160Z,10.30
2023-04-10T23:23:40.187Z,10.30
2023-04-10T23:26:08.449Z,10.30
2023-04-10T23:28:36.492Z,10.30
2023-04-10T23:31:04.620Z,10.20
2023-04-10T23:33:32.810Z,10.20
2023-04-10T23:36:02.920Z,10.20
2023-04-10T23:38:32.641Z,10.20
2023-04-10T23:41:02.860Z,10.20
2023-04-10T23:43:31.177Z,10.20
2023-04-10T23:45:59.152Z,10.20
2023-04-10T23:48:27.509Z,10.20
2023-04-10T23:51:03.274Z,10.20
2023-04-10T23:53:32.727Z,10.10
2023-04-10T23:56:00.766Z,10.20
2023-04-10T23:58:28.783Z,10.10
